sensor_id;sensor_type;location;lat;lon;timestamp;pressure;altitude;pressure_sealevel;temperature;humidity
19624;BME280;9959;49.798;9.928;2023-09-30T00:01:58;100318.34;;;16.19;100.00
19624;BME280;9959;49.798;9.928;2023-09-30T00:04:25;100305.81;;;16.06;100.00
19624;BME280;9959;49.798;9.928;2023-09-30T00:06:54;100318.19;;;16.02;100.00
19624;BME280;9959;49.798;9.928;2023-09-30T00:09:24;100321.66;;;15.79;100.00
19624;BME280;9959;49.798;9.928;2023-09-30T00:11:51;100322.63;;;15.85;100.00
19624;BME280;9959;49.798;9.928;2023-09-30T00:14:18;100325.09;;;15.86;100.00
19624;BME280;9959;49.798;9.928;2023-09-30T00:16:45;100334.44;;;15.90;100.00
19624;BME280;9959;49.798;9.928;2023-09-30T00:19:12;100330.84;;;15.78;100.00
19624;BME280;9959;49.798;9.928;2023-09-30T00:21:40;100335.47;;;15.78;100.00
19624;BME280;9959;49.798;9.928;2023-09-30T00:24:08;100331.63;;;15.67;100.00
19624;BME280;9959;49.798;9.928;2023-09-30T00:26:35;100329.34;;;15.64;100.00
19624;BME280;9959;49.798;9.928;2023-09-30T00:29:02;100333.00;;;15.58;100.00
19624;BME280;9959;49.798;9.928;2023-09-30T00:31:32;100332.59;;;15.54;100.00
19624;BME280;9959;49.798;9.928;2023-09-30T00:33:59;100338.44;;;15.58;100.00
19624;BME280;9959;49.798;9.928;2023-09-30T00:36:26;100349.34;;;15.51;100.00
19624;BME280;9959;49.798;9.928;2023-09-30T00:38:53;100347.00;;;15.55;100.00
19624;BME280;9959;49.798;9.928;2023-09-30T00:41:21;100359.38;;;15.51;100.00
19624;BME280;9959;49.798;9.928;2023-09-30T00:43:48;100361.03;;;15.52;100.00
19624;BME280;9959;49.798;9.928;2023-09-30T00:48:45;100370.06;;;15.46;100.00
19624;BME280;9959;49.798;9.928;2023-09-30T00:51:12;100370.22;;;15.51;100.00
19624;BME280;9959;49.798;9.928;2023-09-30T00:53:39;100363.13;;;15.50;100.00
19624;BME280;9959;49.798;9.928;2023-09-30T00:56:07;100376.50;;;15.51;100.00
19624;BME280;9959;49.798;9.928;2023-09-30T00:58:35;100384.25;;;15.48;100.00
19624;BME280;9959;49.798;9.928;2023-09-30T01:01:02;100383.22;;;15.49;100.00
19624;BME280;9959;49.798;9.928;2023-09-30T01:03:30;100386.09;;;15.54;100.00
19624;BME280;9959;49.798;9.928;2023-09-30T01:05:58;100377.28;;;15.59;100.00
19624;BME280;9959;49.798;9.928;2023-09-30T01:08:25;100372.69;;;15.59;100.00
19624;BME280;9959;49.798;9.928;2023-09-30T01:10:54;100384.06;;;15.68;100.00
19624;BME280;9959;49.798;9.928;2023-09-30T01:13:22;100380.06;;;15.70;100.00
19624;BME280;9959;49.798;9.928;2023-09-30T01:15:48;100370.84;;;15.71;100.00
19624;BME280;9959;49.798;9.928;2023-09-30T01:18:16;100380.81;;;15.77;100.00
19624;BME280;9959;49.798;9.928;2023-09-30T01:20:44;100378.69;;;15.79;100.00
19624;BME280;9959;49.798;9.928;2023-09-30T01:23:11;100384.59;;;15.76;100.00
19624;BME280;9959;49.798;9.928;2023-09-30T01:25:38;100387.09;;;15.78;100.00
19624;BME280;9959;49.798;9.928;2023-09-30T01:28:08;100390.19;;;15.81;100.00
19624;BME280;9959;49.798;9.928;2023-09-30T01:30:35;100400.00;;;15.82;100.00
19624;BME280;9959;49.798;9.928;2023-09-30T01:33:03;100399.53;;;15.85;100.00
19624;BME280;9959;49.798;9.928;2023-09-30T01:35:30;100395.38;;;15.83;100.00
19624;BME280;9959;49.798;9.928;2023-09-30T01:37:56;100396.56;;;15.87;100.00
19624;BME280;9959;49.798;9.928;2023-09-30T01:40:23;100395.38;;;15.83;100.00
19624;BME280;9959;49.798;9.928;2023-09-30T01:42:50;100398.31;;;15.81;100.00
19624;BME280;9959;49.798;9.928;2023-09-30T01:45:18;100398.44;;;15.86;99.98
19624;BME280;9959;49.798;9.928;2023-09-30T01:47:45;100391.97;;;15.87;99.36
19624;BME280;9959;49.798;9.928;2023-09-30T01:50:13;100396.34;;;15.88;99.99
19624;BME280;9959;49.798;9.928;2023-09-30T01:52:39;100389.94;;;15.83;99.05
19624;BME280;9959;49.798;9.928;2023-09-30T01:55:07;100403.09;;;15.86;98.36
19624;BME280;9959;49.798;9.928;2023-09-30T01:57:33;100402.72;;;15.82;98.05
19624;BME280;9959;49.798;9.928;2023-09-30T02:00:00;100406.47;;;15.81;97.65
19624;BME280;9959;49.798;9.928;2023-09-30T02:02:27;100417.94;;;15.83;97.74
19624;BME280;9959;49.798;9.928;2023-09-30T02:04:55;100412.28;;;15.85;97.53
19624;BME280;9959;49.798;9.928;2023-09-30T02:07:21;100424.22;;;15.84;97.75
19624;BME280;9959;49.798;9.928;2023-09-30T02:09:48;100423.38;;;15.83;97.68
19624;BME280;9959;49.798;9.928;2023-09-30T02:12:17;100429.72;;;15.77;98.15
19624;BME280;9959;49.798;9.928;2023-09-30T02:14:44;100423.06;;;15.73;99.59
19624;BME280;9959;49.798;9.928;2023-09-30T02:17:12;100413.88;;;15.74;98.73
19624;BME280;9959;49.798;9.928;2023-09-30T02:19:40;100411.53;;;15.78;99.07
19624;BME280;9959;49.798;9.928;2023-09-30T02:22:07;100415.91;;;15.79;97.86
19624;BME280;9959;49.798;9.928;2023-09-30T02:24:34;100414.69;;;15.75;98.47
19624;BME280;9959;49.798;9.928;2023-09-30T02:27:01;100423.91;;;15.74;98.63
19624;BME280;9959;49.798;9.928;2023-09-30T02:29:27;100417.19;;;15.76;98.14
19624;BME280;9959;49.798;9.928;2023-09-30T02:31:55;100417.63;;;15.73;98.58
19624;BME280;9959;49.798;9.928;2023-09-30T02:34:21;100408.88;;;15.71;98.87
19624;BME280;9959;49.798;9.928;2023-09-30T02:36:49;100409.72;;;15.72;99.04
19624;BME280;9959;49.798;9.928;2023-09-30T02:39:16;100418.09;;;15.70;98.00
19624;BME280;9959;49.798;9.928;2023-09-30T02:41:43;100422.47;;;15.71;98.45
19624;BME280;9959;49.798;9.928;2023-09-30T02:44:10;100423.97;;;15.67;97.63
19624;BME280;9959;49.798;9.928;2023-09-30T02:46:37;100420.03;;;15.63;98.49
19624;BME280;9959;49.798;9.928;2023-09-30T02:49:04;100423.97;;;15.67;98.62
19624;BME280;9959;49.798;9.928;2023-09-30T02:51:31;100429.25;;;15.62;98.75
19624;BME280;9959;49.798;9.928;2023-09-30T02:53:58;100433.50;;;15.58;99.23
19624;BME280;9959;49.798;9.928;2023-09-30T02:56:25;100435.38;;;15.57;99.96
19624;BME280;9959;49.798;9.928;2023-09-30T02:58:52;100445.66;;;15.49;100.00
19624;BME280;9959;49.798;9.928;2023-09-30T03:01:19;100450.03;;;15.50;100.00
19624;BME280;9959;49.798;9.928;2023-09-30T03:03:47;100451.31;;;15.47;99.58
19624;BME280;9959;49.798;9.928;2023-09-30T03:06:14;100451.72;;;15.51;99.41
19624;BME280;9959;49.798;9.928;2023-09-30T03:08:42;100465.13;;;15.46;98.24
19624;BME280;9959;49.798;9.928;2023-09-30T03:11:10;100462.47;;;15.39;98.08
19624;BME280;9959;49.798;9.928;2023-09-30T03:13:37;100474.16;;;15.40;98.34
19624;BME280;9959;49.798;9.928;2023-09-30T03:16:04;100477.75;;;15.34;98.82
19624;BME280;9959;49.798;9.928;2023-09-30T03:18:31;100477.75;;;15.34;99.19
19624;BME280;9959;49.798;9.928;2023-09-30T03:21:02;100472.78;;;15.31;99.57
19624;BME280;9959;49.798;9.928;2023-09-30T03:23:35;100473.22;;;15.28;99.18
19624;BME280;9959;49.798;9.928;2023-09-30T03:26:02;100470.75;;;15.26;99.77
19624;BME280;9959;49.798;9.928;2023-09-30T03:28:28;100469.91;;;15.26;100.00
19624;BME280;9959;49.798;9.928;2023-09-30T03:30:55;100471.19;;;15.23;99.94
19624;BME280;9959;49.798;9.928;2023-09-30T03:33:23;100469.13;;;15.18;99.89
19624;BME280;9959;49.798;9.928;2023-09-30T03:35:50;100467.91;;;15.14;100.00
19624;BME280;9959;49.798;9.928;2023-09-30T03:38:18;100470.19;;;15.17;100.00
19624;BME280;9959;49.798;9.928;2023-09-30T03:40:46;100474.16;;;15.15;100.00
19624;BME280;9959;49.798;9.928;2023-09-30T03:43:16;100477.94;;;15.14;100.00
19624;BME280;9959;49.798;9.928;2023-09-30T03:45:43;100484.63;;;15.11;100.00
19624;BME280;9959;49.798;9.928;2023-09-30T03:48:10;100493.66;;;15.05;100.00
19624;BME280;9959;49.798;9.928;2023-09-30T03:50:37;100505.91;;;15.14;100.00
19624;BME280;9959;49.798;9.928;2023-09-30T03:53:05;100503.63;;;15.11;100.00
19624;BME280;9959;49.798;9.928;2023-09-30T03:55:33;100509.72;;;15.07;100.00
19624;BME280;9959;49.798;9.928;2023-09-30T03:58:01;100501.63;;;15.00;100.00
19624;BME280;9959;49.798;9.928;2023-09-30T04:00:30;100499.38;;;14.97;100.00
19624;BME280;9959;49.798;9.928;2023-09-30T04:02:57;100506.28;;;14.93;100.00
19624;BME280;9959;49.798;9.928;2023-09-30T04:05:25;100505.25;;;14.87;100.00
19624;BME280;9959;49.798;9.928;2023-09-30T04:07:56;100495.25;;;14.88;100.00
19624;BME280;9959;49.798;9.928;2023-09-30T04:10:23;100494.44;;;14.81;100.00
19624;BME280;9959;49.798;9.928;2023-09-30T04:12:51;100504.03;;;14.83;100.00
19624;BME280;9959;49.798;9.928;2023-09-30T04:15:19;100512.81;;;14.79;100.00
19624;BME280;9959;49.798;9.928;2023-09-30T04:17:46;100508.00;;;14.81;100.00
19624;BME280;9959;49.798;9.928;2023-09-30T04:20:13;100509.88;;;14.80;100.00
19624;BME280;9959;49.798;9.928;2023-09-30T04:22:48;100513.28;;;14.76;100.00
19624;BME280;9959;49.798;9.928;2023-09-30T04:25:16;100519.75;;;14.75;100.00
19624;BME280;9959;49.798;9.928;2023-09-30T04:27:44;100516.66;;;14.71;100.00
19624;BME280;9959;49.798;9.928;2023-09-30T04:30:11;100523.94;;;14.71;100.00
19624;BME280;9959;49.798;9.928;2023-09-30T04:32:38;100533.75;;;14.72;100.00
19624;BME280;9959;49.798;9.928;2023-09-30T04:35:06;100526.66;;;14.71;100.00
19624;BME280;9959;49.798;9.928;2023-09-30T04:37:35;100516.69;;;14.65;100.00
19624;BME280;9959;49.798;9.928;2023-09-30T04:40:07;100513.16;;;14.57;100.00
19624;BME280;9959;49.798;9.928;2023-09-30T04:42:34;100516.28;;;14.61;100.00
19624;BME280;9959;49.798;9.928;2023-09-30T04:45:05;100520.66;;;14.55;100.00
19624;BME280;9959;49.798;9.928;2023-09-30T04:47:36;100516.91;;;14.56;100.00
19624;BME280;9959;49.798;9.928;2023-09-30T04:50:06;100519.63;;;14.56;100.00
19624;BME280;9959;49.798;9.928;2023-09-30T04:52:35;100515.66;;;14.59;100.00
19624;BME280;9959;49.798;9.928;2023-09-30T04:55:02;100522.16;;;14.51;100.00
19624;BME280;9959;49.798;9.928;2023-09-30T04:57:31;100523.03;;;14.45;100.00
19624;BME280;9959;49.798;9.928;2023-09-30T05:00:00;100520.13;;;14.47;100.00
19624;BME280;9959;49.798;9.928;2023-09-30T05:02:27;100519.69;;;14.37;100.00
19624;BME280;9959;49.798;9.928;2023-09-30T05:04:54;100517.19;;;14.35;100.00
19624;BME280;9959;49.798;9.928;2023-09-30T05:07:21;100516.78;;;14.32;100.00
19624;BME280;9959;49.798;9.928;2023-09-30T05:09:51;100524.06;;;14.38;100.00
19624;BME280;9959;49.798;9.928;2023-09-30T05:12:18;100530.97;;;14.47;100.00
19624;BME280;9959;49.798;9.928;2023-09-30T05:14:45;100543.28;;;14.43;100.00
19624;BME280;9959;49.798;9.928;2023-09-30T05:17:12;100554.75;;;14.45;100.00
19624;BME280;9959;49.798;9.928;2023-09-30T05:19:40;100553.50;;;14.41;100.00
19624;BME280;9959;49.798;9.928;2023-09-30T05:22:07;100553.06;;;14.37;100.00
19624;BME280;9959;49.798;9.928;2023-09-30T05:24:34;100548.50;;;14.31;100.00
19624;BME280;9959;49.798;9.928;2023-09-30T05:27:02;100541.59;;;14.35;100.00
19624;BME280;9959;49.798;9.928;2023-09-30T05:29:29;100544.31;;;14.35;100.00
19624;BME280;9959;49.798;9.928;2023-09-30T05:31:59;100542.44;;;14.36;100.00
19624;BME280;9959;49.798;9.928;2023-09-30T05:34:26;100539.94;;;14.47;100.00
19624;BME280;9959;49.798;9.928;2023-09-30T05:36:54;100548.06;;;14.47;100.00
19624;BME280;9959;49.798;9.928;2023-09-30T05:39:21;100538.88;;;14.35;100.00
19624;BME280;9959;49.798;9.928;2023-09-30T05:41:48;100547.38;;;14.52;100.00
19624;BME280;9959;49.798;9.928;2023-09-30T05:44:15;100547.16;;;14.53;100.00
19624;BME280;9959;49.798;9.928;2023-09-30T05:46:42;100557.81;;;14.55;100.00
19624;BME280;9959;49.798;9.928;2023-09-30T05:49:12;100558.91;;;14.47;100.00
19624;BME280;9959;49.798;9.928;2023-09-30T05:51:41;100547.16;;;14.53;100.00
19624;BME280;9959;49.798;9.928;2023-09-30T05:54:08;100550.50;;;14.55;99.29
19624;BME280;9959;49.798;9.928;2023-09-30T05:56:36;100549.25;;;14.51;99.98
19624;BME280;9959;49.798;9.928;2023-09-30T05:59:09;100552.13;;;14.70;99.00
19624;BME280;9959;49.798;9.928;2023-09-30T06:01:36;100563.63;;;14.59;98.97
19624;BME280;9959;49.798;9.928;2023-09-30T06:04:03;100561.34;;;14.55;99.80
19624;BME280;9959;49.798;9.928;2023-09-30T06:06:31;100555.47;;;14.65;99.35
19624;BME280;9959;49.798;9.928;2023-09-30T06:08:59;100568.81;;;14.67;100.00
19624;BME280;9959;49.798;9.928;2023-09-30T06:11:26;100573.88;;;14.56;100.00
19624;BME280;9959;49.798;9.928;2023-09-30T06:13:57;100572.16;;;14.69;100.00
19624;BME280;9959;49.798;9.928;2023-09-30T06:16:28;100578.84;;;14.60;100.00
19624;BME280;9959;49.798;9.928;2023-09-30T06:18:54;100579.72;;;14.53;100.00
19624;BME280;9959;49.798;9.928;2023-09-30T06:21:24;100579.91;;;14.59;100.00
19624;BME280;9959;49.798;9.928;2023-09-30T06:23:51;100575.16;;;14.47;100.00
19624;BME280;9959;49.798;9.928;2023-09-30T06:26:18;100574.72;;;14.50;100.00
19624;BME280;9959;49.798;9.928;2023-09-30T06:28:45;100582.22;;;14.55;100.00
19624;BME280;9959;49.798;9.928;2023-09-30T06:31:14;100590.53;;;14.60;100.00
19624;BME280;9959;49.798;9.928;2023-09-30T06:33:42;100588.44;;;14.69;100.00
19624;BME280;9959;49.798;9.928;2023-09-30T06:36:13;100587.94;;;14.78;100.00
19624;BME280;9959;49.798;9.928;2023-09-30T06:38:44;100602.47;;;14.97;99.21
19624;BME280;9959;49.798;9.928;2023-09-30T06:41:18;100613.47;;;15.09;97.58
19624;BME280;9959;49.798;9.928;2023-09-30T06:43:45;100614.41;;;14.89;99.28
19624;BME280;9959;49.798;9.928;2023-09-30T06:46:13;100610.84;;;14.89;99.46
19624;BME280;9959;49.798;9.928;2023-09-30T06:48:40;100618.44;;;15.12;97.78
19624;BME280;9959;49.798;9.928;2023-09-30T06:51:08;100624.09;;;15.10;97.52
19624;BME280;9959;49.798;9.928;2023-09-30T06:53:40;100624.47;;;15.20;96.37
19624;BME280;9959;49.798;9.928;2023-09-30T06:56:08;100626.94;;;15.29;96.04
19624;BME280;9959;49.798;9.928;2023-09-30T06:58:34;100615.69;;;15.18;95.69
19624;BME280;9959;49.798;9.928;2023-09-30T07:01:01;100611.97;;;15.13;96.41
19624;BME280;9959;49.798;9.928;2023-09-30T07:03:29;100613.50;;;15.34;95.64
19624;BME280;9959;49.798;9.928;2023-09-30T07:05:57;100623.09;;;15.36;95.00
19624;BME280;9959;49.798;9.928;2023-09-30T07:08:30;100628.22;;;15.51;94.23
19624;BME280;9959;49.798;9.928;2023-09-30T07:10:57;100624.75;;;15.37;94.28
19624;BME280;9959;49.798;9.928;2023-09-30T07:13:23;100621.56;;;15.47;94.26
19624;BME280;9959;49.798;9.928;2023-09-30T07:15:50;100628.06;;;15.46;94.13
19624;BME280;9959;49.798;9.928;2023-09-30T07:18:17;100623.31;;;15.35;94.45
19624;BME280;9959;49.798;9.928;2023-09-30T07:20:44;100629.97;;;15.39;94.06
19624;BME280;9959;49.798;9.928;2023-09-30T07:23:11;100639.34;;;15.43;94.18
19624;BME280;9959;49.798;9.928;2023-09-30T07:25:46;100636.38;;;15.51;93.31
19624;BME280;9959;49.798;9.928;2023-09-30T07:28:14;100641.72;;;15.64;92.38
19624;BME280;9959;49.798;9.928;2023-09-30T07:30:41;100646.34;;;15.88;90.60
19624;BME280;9959;49.798;9.928;2023-09-30T07:33:08;100653.16;;;15.73;91.78
19624;BME280;9959;49.798;9.928;2023-09-30T07:35:37;100656.53;;;15.68;90.98
19624;BME280;9959;49.798;9.928;2023-09-30T07:38:05;100649.78;;;15.46;92.96
19624;BME280;9959;49.798;9.928;2023-09-30T07:40:33;100645.44;;;15.95;90.16
19624;BME280;9959;49.798;9.928;2023-09-30T07:43:00;100654.97;;;15.85;89.96
19624;BME280;9959;49.798;9.928;2023-09-30T07:45:30;100650.72;;;15.89;88.96
19624;BME280;9959;49.798;9.928;2023-09-30T07:47:57;100653.06;;;15.86;89.23
19624;BME280;9959;49.798;9.928;2023-09-30T07:50:25;100659.25;;;16.18;86.66
19624;BME280;9959;49.798;9.928;2023-09-30T07:52:52;100660.09;;;15.94;87.62
19624;BME280;9959;49.798;9.928;2023-09-30T07:55:19;100657.75;;;16.22;86.49
19624;BME280;9959;49.798;9.928;2023-09-30T07:57:46;100651.44;;;16.46;85.19
19624;BME280;9959;49.798;9.928;2023-09-30T08:00:13;100654.75;;;16.30;85.68
19624;BME280;9959;49.798;9.928;2023-09-30T08:02:44;100646.94;;;16.77;82.89
19624;BME280;9959;49.798;9.928;2023-09-30T08:05:12;100650.06;;;17.10;80.65
19624;BME280;9959;49.798;9.928;2023-09-30T08:07:39;100645.56;;;16.86;81.89
19624;BME280;9959;49.798;9.928;2023-09-30T08:10:06;100643.81;;;16.91;81.84
19624;BME280;9959;49.798;9.928;2023-09-30T08:12:41;100639.03;;;17.05;80.78
19624;BME280;9959;49.798;9.928;2023-09-30T08:15:09;100634.19;;;17.07;80.48
19624;BME280;9959;49.798;9.928;2023-09-30T08:17:39;100628.06;;;17.23;79.20
19624;BME280;9959;49.798;9.928;2023-09-30T08:20:06;100627.97;;;17.18;78.74
19624;BME280;9959;49.798;9.928;2023-09-30T08:22:35;100639.97;;;17.71;75.42
19624;BME280;9959;49.798;9.928;2023-09-30T08:25:02;100640.69;;;17.66;75.86
19624;BME280;9959;49.798;9.928;2023-09-30T08:27:29;100632.53;;;18.13;72.42
19624;BME280;9959;49.798;9.928;2023-09-30T08:29:56;100634.31;;;17.96;74.13
19624;BME280;9959;49.798;9.928;2023-09-30T08:32:23;100629.22;;;18.11;71.98
19624;BME280;9959;49.798;9.928;2023-09-30T08:34:50;100639.88;;;18.47;69.99
19624;BME280;9959;49.798;9.928;2023-09-30T08:37:17;100649.72;;;18.72;69.00
19624;BME280;9959;49.798;9.928;2023-09-30T08:39:44;100645.69;;;18.39;70.08
19624;BME280;9959;49.798;9.928;2023-09-30T08:42:11;100638.56;;;18.38;71.02
19624;BME280;9959;49.798;9.928;2023-09-30T08:44:38;100637.06;;;18.31;70.23
19624;BME280;9959;49.798;9.928;2023-09-30T08:47:08;100635.59;;;18.51;70.12
19624;BME280;9959;49.798;9.928;2023-09-30T08:49:41;100644.75;;;18.45;69.74
19624;BME280;9959;49.798;9.928;2023-09-30T08:52:10;100651.44;;;19.46;64.70
19624;BME280;9959;49.798;9.928;2023-09-30T08:54:40;100654.03;;;19.24;65.69
19624;BME280;9959;49.798;9.928;2023-09-30T08:57:09;100652.59;;;19.05;65.78
19624;BME280;9959;49.798;9.928;2023-09-30T08:59:37;100647.72;;;19.07;66.14
19624;BME280;9959;49.798;9.928;2023-09-30T09:02:10;100653.88;;;19.14;64.60
19624;BME280;9959;49.798;9.928;2023-09-30T09:04:37;100646.06;;;19.35;63.63
19624;BME280;9959;49.798;9.928;2023-09-30T09:07:04;100625.75;;;19.31;64.71
19624;BME280;9959;49.798;9.928;2023-09-30T09:09:36;100641.16;;;19.65;62.87
19624;BME280;9959;49.798;9.928;2023-09-30T09:12:04;100638.09;;;19.78;61.26
19624;BME280;9959;49.798;9.928;2023-09-30T09:14:38;100648.53;;;19.81;62.00
19624;BME280;9959;49.798;9.928;2023-09-30T09:17:10;100638.19;;;19.38;62.65
19624;BME280;9959;49.798;9.928;2023-09-30T09:19:37;100650.94;;;19.33;63.74
19624;BME280;9959;49.798;9.928;2023-09-30T09:22:04;100646.13;;;18.83;65.63
19624;BME280;9959;49.798;9.928;2023-09-30T09:24:34;100646.88;;;18.43;67.70
19624;BME280;9959;49.798;9.928;2023-09-30T09:27:13;100648.63;;;19.86;61.58
19624;BME280;9959;49.798;9.928;2023-09-30T09:29:43;100644.88;;;19.02;64.57
19624;BME280;9959;49.798;9.928;2023-09-30T09:32:14;100637.06;;;18.94;65.08
19624;BME280;9959;49.798;9.928;2023-09-30T09:34:44;100635.72;;;19.37;63.34
19624;BME280;9959;49.798;9.928;2023-09-30T09:37:18;100653.19;;;19.81;61.53
19624;BME280;9959;49.798;9.928;2023-09-30T09:39:52;100649.25;;;20.27;59.50
19624;BME280;9959;49.798;9.928;2023-09-30T09:42:28;100644.25;;;18.48;65.48
19624;BME280;9959;49.798;9.928;2023-09-30T09:45:00;100645.94;;;19.01;64.92
19624;BME280;9959;49.798;9.928;2023-09-30T09:47:29;100642.63;;;18.99;64.27
19624;BME280;9959;49.798;9.928;2023-09-30T09:49:57;100646.53;;;19.03;64.70
19624;BME280;9959;49.798;9.928;2023-09-30T09:52:24;100657.63;;;19.53;62.89
19624;BME280;9959;49.798;9.928;2023-09-30T09:54:51;100654.88;;;19.25;63.58
19624;BME280;9959;49.798;9.928;2023-09-30T09:57:19;100659.28;;;19.26;63.89
19624;BME280;9959;49.798;9.928;2023-09-30T09:59:47;100660.88;;;19.39;63.11
19624;BME280;9959;49.798;9.928;2023-09-30T10:02:19;100659.25;;;18.98;65.18
19624;BME280;9959;49.798;9.928;2023-09-30T10:04:47;100660.09;;;18.98;64.19
19624;BME280;9959;49.798;9.928;2023-09-30T10:07:20;100662.88;;;18.75;64.34
19624;BME280;9959;49.798;9.928;2023-09-30T10:09:50;100656.66;;;19.19;62.45
19624;BME280;9959;49.798;9.928;2023-09-30T10:12:19;100661.88;;;18.92;63.64
19624;BME280;9959;49.798;9.928;2023-09-30T10:14:48;100658.97;;;18.71;65.40
19624;BME280;9959;49.798;9.928;2023-09-30T10:17:15;100656.34;;;18.76;65.34
19624;BME280;9959;49.798;9.928;2023-09-30T10:20:15;100660.63;;;18.72;65.79
19624;BME280;9959;49.798;9.928;2023-09-30T10:22:43;100658.63;;;18.44;67.17
19624;BME280;9959;49.798;9.928;2023-09-30T10:25:34;100675.84;;;18.21;69.27
19624;BME280;9959;49.798;9.928;2023-09-30T10:28:41;100661.72;;;18.24;69.93
19624;BME280;9959;49.798;9.928;2023-09-30T10:31:10;100658.13;;;18.35;69.29
19624;BME280;9959;49.798;9.928;2023-09-30T10:36:34;100654.91;;;18.85;66.63
19624;BME280;9959;49.798;9.928;2023-09-30T10:39:02;100653.25;;;18.84;66.29
19624;BME280;9959;49.798;9.928;2023-09-30T10:53:10;100614.25;;;20.68;55.56
19624;BME280;9959;49.798;9.928;2023-09-30T10:55:38;100614.34;;;21.48;53.17
19624;BME280;9959;49.798;9.928;2023-09-30T10:58:05;100616.84;;;21.01;53.75
19624;BME280;9959;49.798;9.928;2023-09-30T11:00:32;100610.84;;;21.53;52.99
19624;BME280;9959;49.798;9.928;2023-09-30T11:02:59;100605.03;;;20.74;54.00
19624;BME280;9959;49.798;9.928;2023-09-30T11:05:28;100603.44;;;19.50;57.46
19624;BME280;9959;49.798;9.928;2023-09-30T11:08:16;100599.41;;;20.25;55.99
19624;BME280;9959;49.798;9.928;2023-09-30T11:10:48;100601.50;;;21.00;52.48
19624;BME280;9959;49.798;9.928;2023-09-30T11:13:14;100591.44;;;21.65;51.31
19624;BME280;9959;49.798;9.928;2023-09-30T11:15:43;100598.66;;;19.74;56.39
19624;BME280;9959;49.798;9.928;2023-09-30T11:18:18;100586.78;;;20.84;53.92
19624;BME280;9959;49.798;9.928;2023-09-30T11:20:45;100595.31;;;20.06;55.67
19624;BME280;9959;49.798;9.928;2023-09-30T11:23:11;100600.06;;;20.32;55.28
19624;BME280;9959;49.798;9.928;2023-09-30T11:25:39;100603.78;;;19.87;55.69
19624;BME280;9959;49.798;9.928;2023-09-30T11:28:15;100604.25;;;20.01;54.55
19624;BME280;9959;49.798;9.928;2023-09-30T11:30:59;100611.06;;;19.99;54.72
19624;BME280;9959;49.798;9.928;2023-09-30T11:33:26;100602.94;;;20.04;54.28
19624;BME280;9959;49.798;9.928;2023-09-30T11:36:06;100605.53;;;20.32;53.31
19624;BME280;9959;49.798;9.928;2023-09-30T11:38:34;100609.84;;;20.28;53.48
19624;BME280;9959;49.798;9.928;2023-09-30T11:41:03;100623.16;;;20.03;54.37
19624;BME280;9959;49.798;9.928;2023-09-30T11:43:34;100612.00;;;19.87;53.43
19624;BME280;9959;49.798;9.928;2023-09-30T11:46:08;100610.94;;;20.66;51.39
19624;BME280;9959;49.798;9.928;2023-09-30T11:48:36;100616.16;;;20.67;51.57
19624;BME280;9959;49.798;9.928;2023-09-30T11:51:04;100616.34;;;21.26;49.24
19624;BME280;9959;49.798;9.928;2023-09-30T11:53:32;100612.72;;;21.20;48.75
19624;BME280;9959;49.798;9.928;2023-09-30T11:56:02;100616.69;;;20.64;49.51
19624;BME280;9959;49.798;9.928;2023-09-30T11:58:29;100602.66;;;22.32;45.76
19624;BME280;9959;49.798;9.928;2023-09-30T12:00:59;100601.03;;;22.99;44.30
19624;BME280;9959;49.798;9.928;2023-09-30T12:03:27;100592.72;;;22.26;44.91
19624;BME280;9959;49.798;9.928;2023-09-30T12:05:54;100584.56;;;21.57;44.79
19624;BME280;9959;49.798;9.928;2023-09-30T12:08:22;100574.31;;;24.61;39.13
19624;BME280;9959;49.798;9.928;2023-09-30T12:10:49;100573.75;;;25.53;36.59
19624;BME280;9959;49.798;9.928;2023-09-30T12:13:16;100581.84;;;27.59;34.08
19624;BME280;9959;49.798;9.928;2023-09-30T12:15:43;100582.09;;;27.76;33.68
19624;BME280;9959;49.798;9.928;2023-09-30T12:18:11;100574.53;;;27.95;33.26
19624;BME280;9959;49.798;9.928;2023-09-30T12:20:40;100567.72;;;27.74;33.84
19624;BME280;9959;49.798;9.928;2023-09-30T12:23:07;100569.06;;;28.23;33.99
19624;BME280;9959;49.798;9.928;2023-09-30T12:25:34;100566.78;;;27.09;36.07
19624;BME280;9959;49.798;9.928;2023-09-30T12:28:03;100556.75;;;26.27;36.02
19624;BME280;9959;49.798;9.928;2023-09-30T12:30:30;100565.66;;;23.88;41.89
19624;BME280;9959;49.798;9.928;2023-09-30T12:32:59;100559.22;;;26.05;38.75
19624;BME280;9959;49.798;9.928;2023-09-30T12:35:26;100555.19;;;24.06;41.59
19624;BME280;9959;49.798;9.928;2023-09-30T12:37:53;100563.63;;;22.25;46.29
19624;BME280;9959;49.798;9.928;2023-09-30T12:40:20;100564.78;;;21.55;48.33
19624;BME280;9959;49.798;9.928;2023-09-30T12:42:47;100570.31;;;22.39;46.99
19624;BME280;9959;49.798;9.928;2023-09-30T12:45:14;100568.50;;;21.44;48.84
19624;BME280;9959;49.798;9.928;2023-09-30T12:47:41;100560.97;;;21.02;49.05
19624;BME280;9959;49.798;9.928;2023-09-30T12:50:08;100558.19;;;21.24;48.65
19624;BME280;9959;49.798;9.928;2023-09-30T12:52:38;100554.75;;;21.39;48.64
19624;BME280;9959;49.798;9.928;2023-09-30T12:55:05;100548.03;;;20.71;49.74
19624;BME280;9959;49.798;9.928;2023-09-30T12:57:33;100537.38;;;21.55;48.52
19624;BME280;9959;49.798;9.928;2023-09-30T13:00:00;100546.75;;;21.05;49.26
19624;BME280;9959;49.798;9.928;2023-09-30T13:02:28;100549.19;;;20.75;50.20
19624;BME280;9959;49.798;9.928;2023-09-30T13:04:55;100553.13;;;24.52;41.30
19624;BME280;9959;49.798;9.928;2023-09-30T13:07:22;100546.50;;;26.33;37.40
19624;BME280;9959;49.798;9.928;2023-09-30T13:09:50;100537.59;;;27.03;36.42
19624;BME280;9959;49.798;9.928;2023-09-30T13:12:17;100544.88;;;26.75;36.45
19624;BME280;9959;49.798;9.928;2023-09-30T13:14:44;100538.00;;;27.28;34.92
19624;BME280;9959;49.798;9.928;2023-09-30T13:17:11;100529.44;;;27.44;35.18
19624;BME280;9959;49.798;9.928;2023-09-30T13:19:40;100535.88;;;26.83;35.81
19624;BME280;9959;49.798;9.928;2023-09-30T13:22:08;100539.94;;;26.90;36.19